Sunday, May 27, 2018, 1:54 PM GMT
Back to Local

CYSC, Sherbrooke, Que.

Location: , , Canada Lat: 45.4
Local Time: 1:54 PM GMT (13:54 GMT) Lon: -71.883
Time Zone: GMT Elev: 557 ft

Show me the last for .
Show Decoded

2018-05-27 13:00 METAR CYSC 271300Z AUTO 14013G20KT 9SM OVC055 15/07 A3014 RMK SLP208 =
2018-05-27 12:00 METAR CYSC 271200Z AUTO 14011G22KT 110V170 9SM BKN060 BKN250 16/06 A3012 RMK
                 SLP203 DENSITY ALT 800FT =
2018-05-27 11:52 METAR CYSC 271152Z AUTO 15014G19KT 040V190 9SM SCT060 BKN250 16/07 A3012 RMK
                 SLP202 DENSITY ALT 800FT =
2018-05-27 11:00 METAR CYSC 271100Z AUTO 08004KT 9SM SCT055 BKN250 13/04 A3011 RMK SLP198 =
2018-05-27 10:00 METAR CYSC 271000Z AUTO 02003KT 360V060 9SM FEW250 09/03 A3011 RMK SLP198 =
2018-05-27 09:00 METAR CYSC 270900Z AUTO 05006KT 9SM BKN046 09/03 A3009 RMK SLP194 =
2018-05-27 08:00 METAR CYSC 270800Z AUTO 07005KT 9SM SCT055 SCT250 08/03 A3008 RMK SLP190 =
2018-05-27 07:00 METAR CYSC 270700Z AUTO 06006KT 9SM FEW250 08/03 A3007 RMK SLP187 =
2018-05-27 06:00 METAR CYSC 270600Z AUTO 09006KT 9SM FEW250 09/03 A3006 RMK SLP184 =
2018-05-27 05:00 METAR CYSC 270500Z AUTO 07006KT 9SM CLR 10/04 A3004 RMK SLP178 =
2018-05-27 04:00 METAR CYSC 270400Z AUTO 07005KT 9SM CLR 12/04 A3003 RMK SLP172 =
2018-05-27 03:00 METAR CYSC 270300Z AUTO 06006KT 9SM CLR 13/05 A3001 RMK SLP166 =
2018-05-27 02:00 METAR CYSC 270200Z AUTO 06005KT 9SM CLR 14/05 A3000 RMK SLP161 DENSITY ALT 800FT
                 =
2018-05-27 01:00 METAR CYSC 270100Z AUTO 04004KT 9SM CLR 16/05 A2997 RMK SLP150 DENSITY ALT
                 1000FT =
2018-05-27 00:00 METAR CYSC 270000Z AUTO 04004KT 9SM FEW240 18/03 A2994 RMK SLP139 DENSITY ALT
                 1300FT =
2018-05-26 23:00 METAR CYSC 262300Z AUTO 02003KT 9SM FEW250 20/04 A2991 RMK SLP130 DENSITY ALT
                 1500FT =
2018-05-26 22:00 METAR CYSC 262200Z AUTO 02004KT 350V070 9SM CLR 22/02 A2988 RMK SLP121 DENSITY
                 ALT 1700FT =
2018-05-26 21:00 METAR CYSC 262100Z AUTO 34005KT 300V020 9SM CLR 22/03 A2987 RMK SLP115 DENSITY
                 ALT 1800FT =
2018-05-26 20:00 METAR CYSC 262000Z AUTO 33010KT 9SM CLR 23/03 A2984 RMK SLP106 DENSITY ALT
                 1900FT =
2018-05-26 19:00 METAR CYSC 261900Z AUTO 32007KT 280V360 9SM FEW044 23/10 A2982 RMK SLP098
                 DENSITY ALT 2000FT =
2018-05-26 18:00 METAR CYSC 261800Z AUTO 33007KT 270V020 9SM BKN075 BKN250 22/13 A2981 RMK SLP094
                 DENSITY ALT 1900FT =
2018-05-26 17:00 METAR CYSC 261700Z AUTO 34007KT 9SM FEW035 BKN075 21/13 A2979 RMK SLP090 DENSITY
                 ALT 1800FT =
2018-05-26 16:00 METAR CYSC 261600Z AUTO 30010G15KT 9SM FEW027 BKN035 21/15 A2978 RMK SLP085
                 DENSITY ALT 1700FT =
2018-05-26 15:10 METAR CYSC 261510Z AUTO VRB07KT 9SM SCT014 SCT021 20/15 A2977 RMK SLP081 DENSITY
                 ALT 1700FT =
2018-05-26 15:00 METAR CYSC 261500Z AUTO 30004KT 250V350 9SM SCT014 BKN021 19/16 A2976 RMK SLP080
                 DENSITY ALT 1600FT =
2018-05-26 14:37 METAR CYSC 261437Z AUTO 25009KT 9SM FEW010 BKN023 BKN065 18/16 A2977 RMK SLP081
                 DENSITY ALT 1500FT =
2018-05-26 14:32 METAR CYSC 261432Z AUTO 27008KT 9SM FEW010 SCT017 SCT023 BKN065 18/16 A2977 RMK
                 SLP081 DENSITY ALT 1500FT =
2018-05-26 14:20 METAR CYSC 261420Z AUTO 26007KT 9SM SCT010 BKN017 OVC023 18/16 A2977 RMK SLP081
                 DENSITY ALT 1400FT =
2018-05-26 14:06 METAR CYSC 261406Z AUTO 24009KT 9SM -RA BKN010 OVC017 17/16 A2976 RMK SLP079
                 DENSITY ALT 1300FT =
2018-05-26 14:00 METAR CYSC 261400Z AUTO 26007KT 9SM BKN010 OVC017 17/16 A2976 RMK SLP080 DENSITY
                 ALT 1300FT =

Support USWX by starting your Amazon purchase here.